createdAt,value
2023-07-02T00:00:35.048Z,1.40
2023-07-02T00:01:41.323Z,1.50
2023-07-02T00:02:44.182Z,1.88
2023-07-02T00:03:47.134Z,2.40
2023-07-02T00:04:52.365Z,1.95
2023-07-02T00:05:55.931Z,1.80
2023-07-02T00:06:59.050Z,2.33
2023-07-02T00:08:05.225Z,2.20
2023-07-02T00:09:08.899Z,2.60
2023-07-02T00:10:12.170Z,1.70
2023-07-02T00:11:17.080Z,1.58
2023-07-02T00:12:22.257Z,1.75
2023-07-02T00:13:25.336Z,2.43
2023-07-02T00:14:28.299Z,1.77
2023-07-02T00:15:33.705Z,1.90
2023-07-02T00:16:36.832Z,1.50
2023-07-02T00:17:41.575Z,1.60
2023-07-02T00:18:44.962Z,2.40
2023-07-02T00:19:47.677Z,1.90
2023-07-02T00:20:52.293Z,1.92
2023-07-02T00:21:55.155Z,1.65
2023-07-02T00:23:01.587Z,1.67
2023-07-02T00:24:05.014Z,1.95
2023-07-02T00:25:08.035Z,1.83
2023-07-02T00:26:12.616Z,2.55
2023-07-02T00:27:17.288Z,2.95
2023-07-02T00:28:20.072Z,2.08
2023-07-02T00:29:23.246Z,2.13
2023-07-02T00:30:27.911Z,1.92
2023-07-02T00:31:34.357Z,2.25
2023-07-02T00:32:37.644Z,1.55
2023-07-02T00:33:39.431Z,1.52
2023-07-02T00:34:41.146Z,1.90
2023-07-02T00:35:43.713Z,1.55
2023-07-02T00:36:50.054Z,1.98
2023-07-02T00:37:53.081Z,1.83
2023-07-02T00:38:54.867Z,1.77
2023-07-02T00:39:59.076Z,1.70
2023-07-02T00:41:02.254Z,1.83
2023-07-02T00:42:08.363Z,1.48
2023-07-02T00:43:15.357Z,1.80
2023-07-02T00:44:22.698Z,1.73
2023-07-02T00:45:27.766Z,2.00
2023-07-02T00:46:31.833Z,1.38
2023-07-02T00:47:37.980Z,1.98
2023-07-02T00:48:42.197Z,2.50
2023-07-02T00:49:48.393Z,1.35
2023-07-02T00:50:54.467Z,2.78
2023-07-02T00:51:57.268Z,1.88
2023-07-02T00:53:05.018Z,2.42
2023-07-02T00:54:08.239Z,1.73
2023-07-02T00:55:14.203Z,2.30
2023-07-02T00:56:19.462Z,1.83
2023-07-02T00:57:23.409Z,2.20
2023-07-02T00:58:26.289Z,1.73
2023-07-02T00:59:35.584Z,2.83
2023-07-02T01:00:40.098Z,1.83
2023-07-02T01:01:43.584Z,2.17
2023-07-02T01:03:04.492Z,2.28
2023-07-02T01:04:14.563Z,2.72
2023-07-02T01:05:20.473Z,2.80
2023-07-02T01:06:37.474Z,2.83
2023-07-02T01:07:43.308Z,1.98
2023-07-02T01:08:46.227Z,1.98
2023-07-02T01:09:48.016Z,1.77
2023-07-02T01:10:50.860Z,1.85
2023-07-02T01:12:00.721Z,1.90
2023-07-02T01:13:23.115Z,1.83
2023-07-02T01:14:33.315Z,2.95
2023-07-02T01:15:40.523Z,2.20
2023-07-02T01:16:55.023Z,1.30
2023-07-02T01:18:00.497Z,1.60
2023-07-02T01:19:06.036Z,2.20
2023-07-02T01:20:11.682Z,2.80
2023-07-02T01:21:18.159Z,1.45
2023-07-02T01:22:29.092Z,2.38
2023-07-02T01:23:32.415Z,1.75
2023-07-02T01:24:38.322Z,1.70
2023-07-02T01:25:41.383Z,1.98
2023-07-02T01:26:43.540Z,2.08
2023-07-02T01:27:48.841Z,2.13
2023-07-02T01:28:55.406Z,3.17
2023-07-02T01:29:58.743Z,2.35
2023-07-02T01:31:02.076Z,2.33
2023-07-02T01:32:10.776Z,2.40
2023-07-02T01:33:14.262Z,2.03
2023-07-02T01:34:20.359Z,2.70
2023-07-02T01:35:24.058Z,2.00
2023-07-02T01:36:27.928Z,1.90
2023-07-02T01:37:40.620Z,2.20
2023-07-02T01:38:50.806Z,2.50
2023-07-02T01:39:55.121Z,2.92
2023-07-02T01:41:00.063Z,2.30
2023-07-02T01:42:25.196Z,2.00
2023-07-02T01:43:27.073Z,2.30
2023-07-02T01:44:30.274Z,1.73
2023-07-02T01:45:35.850Z,2.30
2023-07-02T01:46:41.353Z,2.42
2023-07-02T01:47:47.797Z,1.77
2023-07-02T01:48:53.097Z,2.35
2023-07-02T01:49:57.253Z,2.13
2023-07-02T01:51:07.012Z,2.40
2023-07-02T01:52:13.038Z,2.08
2023-07-02T01:53:18.932Z,2.50
2023-07-02T01:54:36.469Z,2.45
2023-07-02T01:55:41.265Z,3.60
2023-07-02T01:56:47.097Z,3.08
2023-07-02T01:57:50.171Z,2.20
2023-07-02T01:58:55.197Z,2.78
2023-07-02T01:59:58.737Z,2.35
2023-07-02T02:01:06.353Z,2.70
2023-07-02T02:02:10.253Z,2.30
2023-07-02T02:03:13.381Z,2.00
2023-07-02T02:04:23.260Z,2.50
2023-07-02T02:05:26.629Z,2.70
2023-07-02T02:06:32.047Z,3.55
2023-07-02T02:07:42.573Z,2.55
2023-07-02T02:08:48.512Z,3.10
2023-07-02T02:09:53.787Z,2.30
2023-07-02T02:10:56.692Z,2.50
2023-07-02T02:12:02.606Z,2.80
2023-07-02T02:13:08.375Z,2.42
2023-07-02T02:14:10.902Z,3.72
2023-07-02T02:15:18.175Z,2.70
2023-07-02T02:16:25.746Z,2.60
2023-07-02T02:17:32.126Z,2.03
2023-07-02T02:18:36.584Z,2.42
2023-07-02T02:19:39.736Z,3.13
2023-07-02T02:20:48.691Z,2.60
2023-07-02T02:21:54.776Z,3.13
2023-07-02T02:23:00.193Z,2.50
2023-07-02T02:24:03.383Z,2.50
2023-07-02T02:25:06.888Z,2.97
2023-07-02T02:26:18.450Z,2.17
2023-07-02T02:27:20.824Z,3.00
2023-07-02T02:28:23.529Z,3.13
2023-07-02T02:29:30.010Z,3.47
2023-07-02T02:30:33.250Z,2.70
2023-07-02T02:31:37.877Z,2.10
2023-07-02T02:32:44.687Z,2.65
2023-07-02T02:33:50.309Z,2.63
2023-07-02T02:34:52.728Z,3.22
2023-07-02T02:35:58.074Z,2.92
2023-07-02T02:37:03.441Z,2.78
2023-07-02T02:38:06.628Z,2.63
2023-07-02T02:39:10.744Z,2.63
2023-07-02T02:40:14.356Z,2.92
2023-07-02T02:41:17.582Z,3.80
2023-07-02T02:42:29.144Z,3.30
2023-07-02T02:43:32.519Z,2.47
2023-07-02T02:44:38.350Z,3.00
2023-07-02T02:45:43.178Z,3.28
2023-07-02T02:46:49.384Z,3.42
2023-07-02T02:47:52.774Z,2.90
2023-07-02T02:48:54.502Z,3.15
2023-07-02T02:49:57.444Z,2.80
2023-07-02T02:51:04.093Z,2.97
2023-07-02T02:52:09.613Z,2.88
2023-07-02T02:53:13.197Z,2.50
2023-07-02T02:54:17.624Z,3.50
2023-07-02T02:55:20.866Z,3.50
2023-07-02T02:56:23.975Z,2.60
2023-07-02T02:57:27.001Z,3.33
2023-07-02T02:58:30.577Z,2.58
2023-07-02T02:59:32.613Z,3.60
2023-07-02T03:00:37.288Z,2.75
2023-07-02T03:01:42.494Z,2.88
2023-07-02T03:02:46.764Z,2.83
2023-07-02T03:03:51.590Z,3.22
2023-07-02T03:04:57.039Z,4.95
2023-07-02T03:06:00.051Z,3.60
2023-07-02T03:07:05.965Z,2.60
2023-07-02T03:08:12.761Z,2.58
2023-07-02T03:09:14.773Z,3.42
2023-07-02T03:10:19.834Z,2.47
2023-07-02T03:11:30.277Z,3.05
2023-07-02T03:12:34.127Z,3.15
2023-07-02T03:13:41.216Z,2.90
2023-07-02T03:14:43.227Z,4.32
2023-07-02T03:15:47.376Z,3.70
2023-07-02T03:16:53.231Z,2.72
2023-07-02T03:17:57.930Z,2.20
2023-07-02T03:19:03.228Z,4.00
2023-07-02T03:20:10.791Z,3.30
2023-07-02T03:21:15.196Z,2.65
2023-07-02T03:22:17.973Z,3.50
2023-07-02T03:23:23.613Z,3.05
2023-07-02T03:24:26.385Z,3.10
2023-07-02T03:25:29.328Z,3.70
2023-07-02T03:26:34.663Z,2.95
2023-07-02T03:27:41.018Z,2.67
2023-07-02T03:28:46.470Z,3.92
2023-07-02T03:29:50.006Z,3.03
2023-07-02T03:30:55.107Z,2.80
2023-07-02T03:32:01.291Z,2.67
2023-07-02T03:33:08.946Z,3.35
2023-07-02T03:34:12.698Z,3.20
2023-07-02T03:35:15.565Z,3.20
2023-07-02T03:36:18.602Z,2.92
2023-07-02T03:37:25.516Z,4.57
2023-07-02T03:38:29.406Z,3.08
2023-07-02T03:39:32.213Z,4.47
2023-07-02T03:40:37.238Z,3.28
2023-07-02T03:41:40.243Z,3.78
2023-07-02T03:42:47.600Z,3.33
2023-07-02T03:43:51.288Z,3.10
2023-07-02T03:44:59.653Z,3.22
2023-07-02T03:46:04.455Z,2.67
2023-07-02T03:47:12.424Z,2.47
2023-07-02T03:48:17.968Z,2.90
2023-07-02T03:49:22.742Z,2.90
2023-07-02T03:50:25.661Z,3.95
2023-07-02T03:51:30.614Z,3.63
2023-07-02T03:52:44.123Z,3.17
2023-07-02T03:53:49.610Z,2.97
2023-07-02T03:54:53.027Z,2.63
2023-07-02T03:55:56.303Z,3.30
2023-07-02T03:56:59.948Z,3.17
2023-07-02T03:58:01.897Z,3.15
2023-07-02T03:59:05.218Z,3.28
2023-07-02T04:00:11.738Z,2.42
2023-07-02T04:01:18.990Z,3.60
2023-07-02T04:02:24.574Z,4.95
2023-07-02T04:03:26.958Z,3.45
2023-07-02T04:04:32.900Z,3.40
2023-07-02T04:05:35.203Z,2.42
2023-07-02T04:06:40.223Z,3.22
2023-07-02T04:07:46.704Z,2.92
2023-07-02T04:08:52.519Z,2.95
2023-07-02T04:09:55.752Z,3.47
2023-07-02T04:11:01.555Z,2.78
2023-07-02T04:12:08.084Z,2.97
2023-07-02T04:13:14.550Z,3.03
2023-07-02T04:14:16.926Z,3.20
2023-07-02T04:15:20.391Z,2.65
2023-07-02T04:16:23.930Z,2.40
2023-07-02T04:17:33.079Z,3.38
2023-07-02T04:18:37.625Z,2.83
2023-07-02T04:19:40.747Z,2.78
2023-07-02T04:20:42.739Z,2.42
2023-07-02T04:21:49.517Z,2.65
2023-07-02T04:22:53.217Z,2.70
2023-07-02T04:24:00.089Z,3.00
2023-07-02T04:25:12.256Z,2.47
2023-07-02T04:27:31.363Z,2.92
2023-07-02T04:28:01.823Z,2.30
2023-07-02T04:29:05.288Z,2.90
2023-07-02T04:30:14.416Z,3.00
2023-07-02T04:31:16.659Z,2.67
2023-07-02T04:32:19.964Z,2.42
2023-07-02T04:33:25.012Z,3.60
2023-07-02T04:34:31.026Z,2.80
2023-07-02T04:35:36.333Z,3.00
2023-07-02T04:36:39.823Z,2.92
2023-07-02T04:37:44.255Z,2.72
2023-07-02T04:38:47.417Z,3.30
2023-07-02T04:39:53.288Z,3.50
2023-07-02T04:40:59.758Z,2.90
2023-07-02T04:42:04.833Z,2.40
2023-07-02T04:43:08.611Z,2.75
2023-07-02T04:44:13.711Z,3.50
2023-07-02T04:45:19.513Z,2.85
2023-07-02T04:46:24.814Z,2.80
2023-07-02T04:47:29.223Z,3.25
2023-07-02T04:48:32.564Z,2.50
2023-07-02T04:49:39.357Z,3.00
2023-07-02T04:50:55.211Z,2.40
2023-07-02T04:51:59.937Z,2.47
2023-07-02T04:53:05.919Z,2.78
2023-07-02T04:54:08.670Z,2.88
2023-07-02T04:55:13.599Z,2.50
2023-07-02T04:56:19.421Z,3.25
2023-07-02T04:57:21.416Z,3.22
2023-07-02T04:58:26.299Z,3.22
2023-07-02T04:59:29.635Z,6.90
2023-07-02T05:00:35.659Z,2.70
2023-07-02T05:01:39.973Z,2.85
2023-07-02T05:02:44.917Z,2.85
2023-07-02T05:03:48.281Z,2.67
2023-07-02T05:04:52.330Z,3.15
2023-07-02T05:05:58.278Z,2.33
2023-07-02T05:07:14.041Z,2.55
2023-07-02T05:08:20.484Z,2.87
2023-07-02T05:09:24.175Z,2.95
2023-07-02T05:10:30.118Z,3.15
2023-07-02T05:11:32.225Z,2.80
2023-07-02T05:12:35.884Z,2.40
2023-07-02T05:13:38.969Z,3.33
2023-07-02T05:14:42.095Z,2.78
2023-07-02T05:15:44.834Z,2.83
2023-07-02T05:16:48.366Z,3.05
2023-07-02T05:17:53.476Z,2.00
2023-07-02T05:18:59.840Z,3.30
2023-07-02T05:20:05.230Z,3.20
2023-07-02T05:21:10.901Z,3.10
2023-07-02T05:22:18.253Z,2.88
2023-07-02T05:23:25.913Z,2.65
2023-07-02T05:24:31.184Z,3.13
2023-07-02T05:25:34.694Z,2.15
2023-07-02T05:26:38.662Z,2.25
2023-07-02T05:27:44.360Z,2.95
2023-07-02T05:28:50.617Z,2.95
2023-07-02T05:29:57.375Z,2.47
2023-07-02T05:31:04.920Z,2.50
2023-07-02T05:32:08.481Z,2.60
2023-07-02T05:33:14.575Z,2.55
2023-07-02T05:34:21.359Z,3.63
2023-07-02T05:35:27.443Z,3.40
2023-07-02T05:36:33.762Z,3.70
2023-07-02T05:37:38.961Z,2.60
2023-07-02T05:38:40.882Z,2.03
2023-07-02T05:39:44.511Z,2.38
2023-07-02T05:40:50.313Z,2.60
2023-07-02T05:41:56.515Z,2.92
2023-07-02T05:43:00.002Z,2.67
2023-07-02T05:44:07.599Z,2.65
2023-07-02T05:45:15.358Z,1.92
2023-07-02T05:46:18.520Z,2.85
2023-07-02T05:47:21.125Z,3.10
2023-07-02T05:48:26.405Z,2.42
2023-07-02T05:49:31.606Z,3.65
2023-07-02T05:50:39.041Z,4.22
2023-07-02T05:51:44.516Z,2.88
2023-07-02T05:52:54.870Z,3.38
2023-07-02T05:53:57.835Z,3.20
2023-07-02T05:55:04.977Z,2.60
2023-07-02T05:56:11.968Z,2.10
2023-07-02T05:57:15.045Z,3.15
2023-07-02T05:58:23.457Z,1.98
2023-07-02T05:59:34.935Z,2.60
2023-07-02T06:00:38.163Z,2.85
2023-07-02T06:01:46.024Z,2.70
2023-07-02T06:02:52.510Z,3.03
2023-07-02T06:03:56.670Z,2.50
2023-07-02T06:05:03.274Z,2.63
2023-07-02T06:06:05.793Z,2.70
2023-07-02T06:07:15.088Z,3.85
2023-07-02T06:08:21.515Z,3.03
2023-07-02T06:09:27.304Z,2.33
2023-07-02T06:10:33.086Z,3.63
2023-07-02T06:11:37.777Z,2.63
2023-07-02T06:12:40.883Z,2.40
2023-07-02T06:13:46.190Z,2.50
2023-07-02T06:14:52.835Z,2.33
2023-07-02T06:15:56.123Z,2.55
2023-07-02T06:17:01.309Z,2.55
2023-07-02T06:18:07.806Z,4.20
2023-07-02T06:19:14.261Z,3.50
2023-07-02T06:20:19.091Z,3.60
2023-07-02T06:21:24.984Z,2.03
2023-07-02T06:22:30.275Z,3.50
2023-07-02T06:23:47.216Z,4.82
2023-07-02T06:24:53.288Z,3.28
2023-07-02T06:26:04.241Z,2.40
2023-07-02T06:27:16.730Z,3.15
2023-07-02T06:28:25.726Z,2.95
2023-07-02T06:29:37.989Z,3.88
2023-07-02T06:30:42.947Z,2.55
2023-07-02T06:31:49.084Z,2.90
2023-07-02T06:32:55.838Z,3.53
2023-07-02T06:34:01.249Z,2.47
2023-07-02T06:35:10.593Z,2.70
2023-07-02T06:36:18.382Z,2.40
2023-07-02T06:37:22.258Z,3.20
2023-07-02T06:38:24.280Z,3.65
2023-07-02T06:39:30.947Z,2.80
2023-07-02T06:40:36.128Z,3.22
2023-07-02T06:41:41.822Z,2.35
2023-07-02T06:42:44.037Z,3.50
2023-07-02T06:43:48.817Z,3.03
2023-07-02T06:44:52.008Z,3.42
2023-07-02T06:45:56.142Z,2.85
2023-07-02T06:47:03.863Z,3.28
2023-07-02T06:48:07.205Z,2.30
2023-07-02T06:49:11.469Z,2.35
2023-07-02T06:50:14.419Z,2.85
2023-07-02T06:51:19.153Z,2.55
2023-07-02T06:52:35.771Z,2.20
2023-07-02T06:53:41.720Z,3.40
2023-07-02T06:54:46.572Z,2.63
2023-07-02T06:55:51.145Z,3.40
2023-07-02T06:56:55.173Z,2.28
2023-07-02T06:58:03.410Z,2.70
2023-07-02T06:59:13.305Z,2.78
2023-07-02T07:00:19.298Z,2.20
2023-07-02T07:01:23.238Z,2.63
2023-07-02T07:02:28.146Z,3.22
2023-07-02T07:03:30.154Z,4.07
2023-07-02T07:04:33.463Z,2.88
2023-07-02T07:05:35.903Z,2.65
2023-07-02T07:06:41.069Z,3.42
2023-07-02T07:07:49.662Z,2.83
2023-07-02T07:08:53.679Z,3.35
2023-07-02T07:09:57.263Z,3.60
2023-07-02T07:11:00.206Z,2.58
2023-07-02T07:12:05.829Z,3.05
2023-07-02T07:13:11.778Z,3.63
2023-07-02T07:14:17.158Z,3.45
2023-07-02T07:15:24.134Z,2.40
2023-07-02T07:16:29.070Z,2.80
2023-07-02T07:17:35.096Z,3.53
2023-07-02T07:18:41.607Z,3.47
2023-07-02T07:19:51.935Z,4.07
2023-07-02T07:21:02.083Z,3.20
2023-07-02T07:22:07.265Z,2.80
2023-07-02T07:23:13.097Z,2.63
2023-07-02T07:24:19.045Z,2.47
2023-07-02T07:25:25.035Z,2.58
2023-07-02T07:26:28.148Z,2.80
2023-07-02T07:27:34.793Z,3.72
2023-07-02T07:28:40.456Z,2.65
2023-07-02T07:29:46.754Z,3.33
2023-07-02T07:30:53.694Z,2.80
2023-07-02T07:31:59.831Z,5.03
2023-07-02T07:33:03.690Z,3.70
2023-07-02T07:34:07.463Z,3.25
2023-07-02T07:35:13.437Z,4.70
2023-07-02T07:36:17.346Z,3.30
2023-07-02T07:37:22.499Z,2.95
2023-07-02T07:38:25.570Z,3.45
2023-07-02T07:39:31.736Z,3.28
2023-07-02T07:40:38.187Z,3.50
2023-07-02T07:41:42.992Z,3.50
2023-07-02T07:42:46.042Z,3.42
2023-07-02T07:43:48.225Z,3.20
2023-07-02T07:44:55.100Z,2.65
2023-07-02T07:45:58.457Z,2.78
2023-07-02T07:47:02.700Z,3.15
2023-07-02T07:48:06.883Z,2.80
2023-07-02T07:49:09.940Z,2.78
2023-07-02T07:50:13.789Z,3.25
2023-07-02T07:51:16.777Z,3.80
2023-07-02T07:52:19.299Z,3.60
2023-07-02T07:53:21.475Z,2.72
2023-07-02T07:54:28.998Z,3.28
2023-07-02T07:55:32.322Z,2.78
2023-07-02T07:56:35.426Z,2.55
2023-07-02T07:57:38.822Z,2.60
2023-07-02T07:58:41.912Z,3.88
2023-07-02T07:59:45.194Z,3.13
2023-07-02T08:00:49.050Z,3.30
2023-07-02T08:01:53.457Z,3.20
2023-07-02T08:02:58.027Z,3.90
2023-07-02T08:04:01.162Z,4.07
2023-07-02T08:05:07.696Z,3.88
2023-07-02T08:06:10.924Z,3.95
2023-07-02T08:07:13.916Z,3.97
2023-07-02T08:08:16.902Z,3.85
2023-07-02T08:09:22.618Z,4.20
2023-07-02T08:10:28.927Z,3.33
2023-07-02T08:11:32.227Z,2.63
2023-07-02T08:12:36.145Z,2.83
2023-07-02T08:13:38.446Z,3.83
2023-07-02T08:14:41.875Z,3.88
2023-07-02T08:15:47.057Z,2.80
2023-07-02T08:16:50.520Z,3.75
2023-07-02T08:17:56.293Z,2.38
2023-07-02T08:19:00.464Z,3.80
2023-07-02T08:20:05.605Z,3.40
2023-07-02T08:21:08.826Z,4.80
2023-07-02T08:22:12.249Z,3.53
2023-07-02T08:23:16.605Z,2.85
2023-07-02T08:24:20.223Z,3.07
2023-07-02T08:25:25.722Z,4.30
2023-07-02T08:26:29.089Z,4.10
2023-07-02T08:27:32.140Z,4.35
2023-07-02T08:28:35.452Z,3.80
2023-07-02T08:29:37.968Z,4.85
2023-07-02T08:30:41.038Z,3.70
2023-07-02T08:31:44.883Z,4.35
2023-07-02T08:32:48.553Z,5.50
2023-07-02T08:33:54.274Z,4.40
2023-07-02T08:34:58.757Z,3.28
2023-07-02T08:36:04.036Z,5.40
2023-07-02T08:37:07.319Z,4.65
2023-07-02T08:38:13.028Z,3.45
2023-07-02T08:39:17.016Z,4.57
2023-07-02T08:40:22.537Z,3.42
2023-07-02T08:41:26.142Z,3.45
2023-07-02T08:42:33.160Z,4.80
2023-07-02T08:43:37.077Z,4.22
2023-07-02T08:44:39.703Z,3.08
2023-07-02T08:45:46.760Z,4.97
2023-07-02T08:46:56.920Z,4.60
2023-07-02T08:48:01.780Z,3.92
2023-07-02T08:49:05.000Z,4.40
2023-07-02T08:50:08.428Z,2.83
2023-07-02T08:51:10.962Z,4.13
2023-07-02T08:52:14.370Z,3.80
2023-07-02T08:53:19.733Z,3.33
2023-07-02T08:54:25.152Z,3.17
2023-07-02T08:55:29.575Z,4.75
2023-07-02T08:56:35.046Z,3.78
2023-07-02T08:57:40.354Z,4.03
2023-07-02T08:58:43.775Z,3.10
2023-07-02T08:59:48.610Z,5.25
2023-07-02T09:01:26.897Z,4.10
2023-07-02T09:02:35.437Z,4.70
2023-07-02T09:03:41.979Z,3.47
2023-07-02T09:04:45.020Z,4.18
2023-07-02T09:05:52.387Z,3.67
2023-07-02T09:07:13.189Z,3.88
2023-07-02T09:08:30.293Z,4.15
2023-07-02T09:09:32.877Z,3.45
2023-07-02T09:10:34.573Z,4.30
2023-07-02T09:11:49.228Z,4.43
2023-07-02T09:12:52.124Z,3.40
2023-07-02T09:14:03.444Z,3.40
2023-07-02T09:15:10.279Z,3.90
2023-07-02T09:16:37.751Z,3.75
2023-07-02T09:17:44.259Z,3.83
2023-07-02T09:19:15.345Z,4.80
2023-07-02T09:20:21.599Z,3.22
2023-07-02T09:21:26.871Z,4.65
2023-07-02T09:22:32.068Z,3.58
2023-07-02T09:23:37.545Z,4.55
2023-07-02T09:24:40.766Z,3.78
2023-07-02T09:25:44.083Z,3.60
2023-07-02T09:27:00.018Z,4.10
2023-07-02T09:28:03.518Z,2.78
2023-07-02T09:29:07.197Z,4.22
2023-07-02T09:30:22.159Z,6.57
2023-07-02T09:31:23.908Z,4.90
2023-07-02T09:32:30.476Z,2.65
2023-07-02T09:33:36.108Z,4.30
2023-07-02T09:34:43.503Z,4.18
2023-07-02T09:35:47.404Z,3.40
2023-07-02T09:36:52.772Z,3.70
2023-07-02T09:37:59.113Z,3.27
2023-07-02T09:39:02.245Z,4.50
2023-07-02T09:40:12.842Z,4.45
2023-07-02T09:41:16.150Z,3.38
2023-07-02T09:42:21.712Z,3.42
2023-07-02T09:43:25.739Z,4.47
2023-07-02T09:44:34.572Z,3.15
2023-07-02T09:45:36.876Z,3.35
2023-07-02T09:46:59.924Z,4.10
2023-07-02T09:48:06.464Z,3.47
2023-07-02T09:49:13.065Z,3.17
2023-07-02T09:50:20.672Z,3.90
2023-07-02T09:51:25.448Z,3.58
2023-07-02T09:52:31.245Z,4.28
2023-07-02T09:53:34.878Z,3.83
2023-07-02T09:54:39.434Z,4.45
2023-07-02T09:55:45.987Z,4.43
2023-07-02T09:56:49.349Z,3.70
2023-07-02T09:57:52.324Z,3.58
2023-07-02T09:58:55.513Z,4.00
2023-07-02T10:00:02.275Z,3.85
2023-07-02T10:01:06.384Z,4.13
2023-07-02T10:02:11.586Z,4.97
2023-07-02T10:03:14.733Z,6.93
2023-07-02T10:04:20.980Z,4.40
2023-07-02T10:05:33.875Z,4.13
2023-07-02T10:06:58.358Z,3.30
2023-07-02T10:08:32.173Z,3.92
2023-07-02T10:09:46.492Z,4.57
2023-07-02T10:10:53.496Z,3.78
2023-07-02T10:11:58.486Z,4.82
2023-07-02T10:13:04.536Z,4.20
2023-07-02T10:14:07.637Z,4.38
2023-07-02T10:15:10.913Z,3.75
2023-07-02T10:16:16.537Z,3.92
2023-07-02T10:17:55.540Z,3.22
2023-07-02T10:19:20.023Z,3.90
2023-07-02T10:20:35.098Z,4.35
2023-07-02T10:21:37.921Z,4.40
2023-07-02T10:23:03.520Z,5.65
2023-07-02T10:24:18.851Z,4.70
2023-07-02T10:25:39.893Z,3.85
2023-07-02T10:27:02.330Z,3.83
2023-07-02T10:28:28.254Z,3.75
2023-07-02T10:29:33.724Z,3.47
2023-07-02T10:30:41.591Z,3.37
2023-07-02T10:31:56.782Z,3.70
2023-07-02T10:33:20.769Z,3.72
2023-07-02T10:34:40.416Z,3.47
2023-07-02T10:35:45.846Z,5.53
2023-07-02T10:36:48.389Z,4.55
2023-07-02T10:37:51.267Z,5.40
2023-07-02T10:38:54.921Z,3.95
2023-07-02T10:39:58.518Z,4.50
2023-07-02T10:41:02.328Z,4.95
2023-07-02T10:42:07.587Z,3.72
2023-07-02T10:43:10.802Z,3.80
2023-07-02T10:44:13.891Z,5.03
2023-07-02T10:45:16.788Z,3.80
2023-07-02T10:46:28.118Z,5.10
2023-07-02T10:47:31.192Z,6.57
2023-07-02T10:48:34.390Z,4.60
2023-07-02T10:49:37.247Z,4.32
2023-07-02T10:50:39.847Z,5.95
2023-07-02T10:51:44.793Z,4.95
2023-07-02T10:52:49.658Z,4.32
2023-07-02T10:54:06.357Z,4.32
2023-07-02T10:55:09.836Z,6.00
2023-07-02T10:56:17.878Z,5.28
2023-07-02T10:57:25.258Z,4.07
2023-07-02T10:58:28.212Z,4.15
2023-07-02T10:59:34.977Z,4.57
2023-07-02T11:00:55.874Z,4.30
2023-07-02T11:02:04.922Z,4.30
2023-07-02T11:03:27.643Z,6.60
2023-07-02T11:04:33.438Z,4.68
2023-07-02T11:05:38.966Z,5.78
2023-07-02T11:06:40.778Z,5.25
2023-07-02T11:07:46.943Z,4.63
2023-07-02T11:08:49.552Z,6.38
2023-07-02T11:09:56.599Z,3.95
2023-07-02T11:11:11.753Z,6.00
2023-07-02T11:12:15.052Z,4.82
2023-07-02T11:13:35.532Z,4.60
2023-07-02T11:14:38.635Z,5.53
2023-07-02T11:15:44.936Z,4.47
2023-07-02T11:16:48.134Z,5.23
2023-07-02T11:17:56.610Z,5.13
2023-07-02T11:19:09.849Z,6.25
2023-07-02T11:20:15.471Z,5.43
2023-07-02T11:21:18.439Z,4.68
2023-07-02T11:22:23.754Z,6.95
2023-07-02T11:23:30.770Z,6.15
2023-07-02T11:24:35.611Z,6.18
2023-07-02T11:25:39.611Z,4.95
2023-07-02T11:26:45.678Z,5.15
2023-07-02T11:27:49.112Z,5.95
2023-07-02T11:28:54.326Z,5.63
2023-07-02T11:30:03.916Z,6.68
2023-07-02T11:31:11.217Z,4.75
2023-07-02T11:32:15.452Z,5.90
2023-07-02T11:33:18.941Z,5.97
2023-07-02T11:34:25.449Z,4.50
2023-07-02T11:35:38.418Z,5.80
2023-07-02T11:36:41.724Z,5.07
2023-07-02T11:37:46.204Z,4.93
2023-07-02T11:38:58.058Z,5.55
2023-07-02T11:40:01.183Z,5.30
2023-07-02T11:41:07.797Z,5.72
2023-07-02T11:42:11.092Z,5.65
2023-07-02T11:43:14.569Z,5.00
2023-07-02T11:44:19.050Z,5.20
2023-07-02T11:45:23.267Z,6.90
2023-07-02T11:46:28.237Z,6.65
2023-07-02T11:47:31.561Z,5.35
2023-07-02T11:48:34.700Z,5.93
2023-07-02T11:49:40.785Z,6.70
2023-07-02T11:50:43.513Z,6.13
2023-07-02T11:51:50.385Z,5.90
2023-07-02T11:52:53.326Z,5.45
2023-07-02T11:53:56.876Z,6.70
2023-07-02T11:55:02.854Z,6.33
2023-07-02T11:56:07.598Z,6.25
2023-07-02T11:57:10.468Z,5.30
2023-07-02T11:58:13.688Z,5.25
2023-07-02T11:59:17.090Z,4.80
2023-07-02T12:00:22.537Z,8.27
2023-07-02T12:01:26.859Z,6.13
2023-07-02T12:02:32.860Z,4.88
2023-07-02T12:03:35.796Z,4.88
2023-07-02T12:04:38.470Z,5.53
2023-07-02T12:05:41.877Z,6.03
2023-07-02T12:06:44.950Z,5.25
2023-07-02T12:07:48.971Z,6.82
2023-07-02T12:08:55.248Z,6.00
2023-07-02T12:10:01.858Z,5.85
2023-07-02T12:11:05.359Z,7.22
2023-07-02T12:12:08.930Z,5.43
2023-07-02T12:13:12.488Z,7.00
2023-07-02T12:14:15.815Z,7.20
2023-07-02T12:15:19.238Z,6.25
2023-07-02T12:16:22.725Z,6.30
2023-07-02T12:17:26.166Z,5.90
2023-07-02T12:18:28.165Z,7.22
2023-07-02T12:19:31.378Z,6.25
2023-07-02T12:20:43.348Z,6.72
2023-07-02T12:21:49.476Z,7.63
2023-07-02T12:22:56.967Z,7.28
2023-07-02T12:24:03.887Z,6.75
2023-07-02T12:25:08.021Z,7.07
2023-07-02T12:26:11.634Z,6.50
2023-07-02T12:27:16.126Z,6.60
2023-07-02T12:28:22.396Z,7.82
2023-07-02T12:29:24.141Z,7.50
2023-07-02T12:30:28.072Z,6.47
2023-07-02T12:31:34.839Z,6.63
2023-07-02T12:32:40.161Z,6.75
2023-07-02T12:33:42.939Z,6.60
2023-07-02T12:34:46.093Z,7.00
2023-07-02T12:35:51.755Z,6.75
2023-07-02T12:36:54.343Z,7.32
2023-07-02T12:37:56.354Z,8.73
2023-07-02T12:38:59.248Z,6.75
2023-07-02T12:40:03.686Z,7.93
2023-07-02T12:41:07.265Z,7.63
2023-07-02T12:42:13.140Z,7.05
2023-07-02T12:43:14.985Z,7.35
2023-07-02T12:44:19.099Z,5.93
2023-07-02T12:45:22.281Z,7.82
2023-07-02T12:46:25.405Z,6.75
2023-07-02T12:47:27.371Z,7.10
2023-07-02T12:48:31.414Z,7.82
2023-07-02T12:49:33.549Z,7.35
2023-07-02T12:50:38.159Z,6.40
2023-07-02T12:51:43.492Z,7.78
2023-07-02T12:52:45.269Z,7.05
2023-07-02T12:53:48.415Z,7.65
2023-07-02T12:54:50.078Z,9.45
2023-07-02T12:55:53.431Z,6.32
2023-07-02T12:56:55.807Z,8.18
2023-07-02T12:57:59.009Z,7.72
2023-07-02T12:59:04.421Z,7.47
2023-07-02T13:00:13.043Z,7.28
2023-07-02T13:01:14.858Z,6.63
2023-07-02T13:02:19.345Z,8.23
2023-07-02T13:03:21.971Z,7.35
2023-07-02T13:04:27.469Z,7.60
2023-07-02T13:05:32.059Z,7.88
2023-07-02T13:06:41.810Z,7.80
2023-07-02T13:07:47.599Z,6.65
2023-07-02T13:08:50.204Z,6.93
2023-07-02T13:09:53.697Z,8.02
2023-07-02T13:10:56.964Z,8.00
2023-07-02T13:12:00.086Z,6.65
2023-07-02T13:13:13.961Z,8.05
2023-07-02T13:14:27.615Z,6.75
2023-07-02T13:15:40.267Z,7.65
2023-07-02T13:16:43.738Z,8.10
2023-07-02T13:17:50.402Z,7.65
2023-07-02T13:18:54.353Z,7.97
2023-07-02T13:19:57.780Z,6.80
2023-07-02T13:21:01.385Z,8.60
2023-07-02T13:22:07.709Z,7.57
2023-07-02T13:23:13.956Z,7.35
2023-07-02T13:24:16.364Z,6.90
2023-07-02T13:25:20.002Z,7.30
2023-07-02T13:26:25.524Z,7.32
2023-07-02T13:27:30.478Z,8.27
2023-07-02T13:28:34.662Z,8.27
2023-07-02T13:29:38.177Z,6.68
2023-07-02T13:30:44.226Z,8.13
2023-07-02T13:31:47.425Z,7.07
2023-07-02T13:32:50.889Z,7.97
2023-07-02T13:33:54.897Z,6.38
2023-07-02T13:34:58.543Z,7.28
2023-07-02T13:36:01.734Z,7.75
2023-07-02T13:37:04.624Z,8.68
2023-07-02T13:38:07.602Z,6.30
2023-07-02T13:39:13.246Z,7.30
2023-07-02T13:40:17.284Z,7.77
2023-07-02T13:41:22.886Z,6.57
2023-07-02T13:42:25.158Z,7.00
2023-07-02T13:43:28.335Z,7.18
2023-07-02T13:44:33.482Z,8.48
2023-07-02T13:45:36.619Z,6.53
2023-07-02T13:46:39.883Z,8.77
2023-07-02T13:47:42.728Z,7.82
2023-07-02T13:48:44.500Z,6.77
2023-07-02T13:49:47.485Z,6.63
2023-07-02T13:50:51.158Z,8.13
2023-07-02T13:51:56.601Z,6.13
2023-07-02T13:52:59.730Z,6.22
2023-07-02T13:54:03.353Z,8.38
2023-07-02T13:55:07.120Z,9.20
2023-07-02T13:56:10.459Z,8.43
2023-07-02T13:57:13.590Z,7.60
2023-07-02T13:58:28.814Z,8.20
2023-07-02T13:59:33.128Z,6.40
2023-07-02T14:00:38.468Z,6.88
2023-07-02T14:01:42.167Z,7.30
2023-07-02T14:02:45.520Z,7.97
2023-07-02T14:03:47.413Z,7.38
2023-07-02T14:04:50.628Z,7.55
2023-07-02T14:05:55.903Z,6.55
2023-07-02T14:06:58.789Z,7.15
2023-07-02T14:08:01.916Z,7.28
2023-07-02T14:09:05.846Z,6.30
2023-07-02T14:10:10.691Z,8.85
2023-07-02T14:11:14.780Z,8.05
2023-07-02T14:12:17.655Z,7.70
2023-07-02T14:13:21.170Z,7.03
2023-07-02T14:14:24.415Z,6.93
2023-07-02T14:15:29.777Z,7.85
2023-07-02T14:16:33.290Z,7.40
2023-07-02T14:17:37.274Z,6.95
2023-07-02T14:18:40.329Z,7.75
2023-07-02T14:19:45.340Z,7.53
2023-07-02T14:20:48.712Z,7.15
2023-07-02T14:21:51.973Z,7.15
2023-07-02T14:22:54.840Z,8.77
2023-07-02T14:23:57.955Z,7.93
2023-07-02T14:25:01.111Z,8.40
2023-07-02T14:26:06.580Z,7.13
2023-07-02T14:27:09.519Z,7.18
2023-07-02T14:28:12.927Z,7.88
2023-07-02T14:29:15.408Z,6.35
2023-07-02T14:30:18.559Z,8.00
2023-07-02T14:31:23.014Z,7.30
2023-07-02T14:32:27.459Z,7.63
2023-07-02T14:33:35.073Z,7.03
2023-07-02T14:34:38.597Z,7.03